Time;durP1;ratioP1;P1;durP2;ratioP2;P2;SDS_P1;SDS_P2;PMS_P1;PMS_P2;Temp;Humidity;BMP_temperature;BMP_pressure;BME280_temperature;BME280_humidity;BME280_pressure;Samples;Min_cycle;Max_cycle;Signal;HPM_P1;HPM_P2
2023/01/31 00:01:33;;;;;;;;;;;;;;;1.32;100.00;96294.44;10529007;28;1999;-71
2023/01/31 00:06:35;;;;;;;;;;;;;;;1.35;100.00;96305.44;10528920;28;1958;-72
2023/01/31 00:11:38;;;;;;;;;;;;;;;1.31;100.00;96295.44;10529011;28;1977;-72
2023/01/31 00:16:41;;;;;;;;;;;;;;;1.37;100.00;96307.06;10529796;28;1927;-72
2023/01/31 00:21:44;;;;;;;;;;;;;;;1.33;100.00;96311.94;10529183;28;1990;-72
2023/01/31 00:26:49;;;;;;;;;;;;;;;1.35;100.00;96317.88;10527581;28;2009;-72
2023/01/31 00:31:51;;;;;;;;;;;;;;;1.37;100.00;96305.25;10525333;28;2038;-72
2023/01/31 00:36:54;;;;;;;;;;;;;;;1.32;100.00;96310.31;10526507;28;1986;-71
2023/01/31 00:41:56;;;;;;;;;;;;;;;1.27;100.00;96312.75;10522059;28;1903;-71
2023/01/31 00:46:58;;;;;;;;;;;;;;;1.25;100.00;96299.72;10522455;28;1931;-71
2023/01/31 00:52:01;;;;;;;;;;;;;;;1.35;100.00;96307.28;10529201;28;1963;-72
2023/01/31 00:57:03;;;;;;;;;;;;;;;1.34;100.00;96318.91;10525875;28;2229;-72
2023/01/31 01:02:06;;;;;;;;;;;;;;;1.33;100.00;96293.41;10524120;28;1923;-72
2023/01/31 01:07:08;;;;;;;;;;;;;;;1.31;100.00;96301.56;10525956;28;1962;-71
2023/01/31 01:12:10;;;;;;;;;;;;;;;1.33;100.00;96320.69;10527830;28;2064;-74
2023/01/31 01:17:13;;;;;;;;;;;;;;;1.31;100.00;96320.09;10526081;28;1918;-74
2023/01/31 01:22:15;;;;;;;;;;;;;;;1.30;100.00;96315.81;10514791;28;1950;-73
2023/01/31 01:27:18;;;;;;;;;;;;;;;1.31;100.00;96319.28;10528130;28;2007;-71
2023/01/31 01:32:20;;;;;;;;;;;;;;;1.32;100.00;96326.22;10526503;28;2175;-74
2023/01/31 01:37:23;;;;;;;;;;;;;;;1.27;100.00;96323.34;10528038;28;1954;-74
2023/01/31 01:42:25;;;;;;;;;;;;;;;1.30;100.00;96336.19;10522803;28;2148;-79
2023/01/31 01:47:27;;;;;;;;;;;;;;;1.32;100.00;96326.22;10525090;28;1934;-77
2023/01/31 01:52:30;;;;;;;;;;;;;;;1.28;100.00;96344.34;10527012;28;1974;-70
2023/01/31 01:57:33;;;;;;;;;;;;;;;1.24;100.00;96329.88;10520408;28;2118;-72
2023/01/31 02:02:35;;;;;;;;;;;;;;;1.28;100.00;96330.31;10518501;28;2027;-71
2023/01/31 02:07:38;;;;;;;;;;;;;;;1.31;100.00;96351.06;10532858;28;2094;-71
2023/01/31 02:12:40;;;;;;;;;;;;;;;1.32;100.00;96360.66;10522793;28;2073;-73
2023/01/31 02:17:43;;;;;;;;;;;;;;;1.25;100.00;96357.16;10526134;28;1935;-72
2023/01/31 02:22:45;;;;;;;;;;;;;;;1.24;100.00;96355.53;10523488;28;1958;-72
2023/01/31 02:27:47;;;;;;;;;;;;;;;1.21;100.00;96358.56;10523270;28;1963;-72
2023/01/31 02:32:50;;;;;;;;;;;;;;;1.21;100.00;96361.22;10522015;28;1935;-72
2023/01/31 02:37:52;;;;;;;;;;;;;;;1.16;100.00;96363.69;10523970;28;1914;-72
2023/01/31 02:42:55;;;;;;;;;;;;;;;1.19;100.00;96369.38;10518902;28;2093;-72
2023/01/31 02:47:57;;;;;;;;;;;;;;;1.17;100.00;96355.53;10518033;28;1955;-72
2023/01/31 02:52:59;;;;;;;;;;;;;;;1.16;100.00;96358.38;10521231;28;1999;-72
2023/01/31 02:58:02;;;;;;;;;;;;;;;1.09;100.00;96371.59;10526788;28;2033;-73
2023/01/31 03:03:04;;;;;;;;;;;;;;;1.09;100.00;96368.97;10524247;28;1958;-72
2023/01/31 03:08:06;;;;;;;;;;;;;;;1.05;100.00;96373.81;10523569;28;1975;-72
2023/01/31 03:13:09;;;;;;;;;;;;;;;1.11;100.00;96382.81;10520221;28;2083;-73
2023/01/31 03:18:11;;;;;;;;;;;;;;;1.07;100.00;96387.66;10524787;28;1978;-72
2023/01/31 03:23:13;;;;;;;;;;;;;;;1.08;100.00;96383.19;10523674;28;2045;-70
2023/01/31 03:28:16;;;;;;;;;;;;;;;1.03;100.00;96391.75;10524177;28;1919;-73
2023/01/31 03:33:19;;;;;;;;;;;;;;;1.12;100.00;96397.69;10517844;28;2044;-72
2023/01/31 03:38:21;;;;;;;;;;;;;;;1.07;100.00;96400.91;10522292;28;1959;-73
2023/01/31 03:43:23;;;;;;;;;;;;;;;0.98;100.00;96414.53;10525788;28;2117;-75
2023/01/31 03:48:26;;;;;;;;;;;;;;;0.99;100.00;96419.63;10532225;28;2181;-74
2023/01/31 03:53:28;;;;;;;;;;;;;;;0.94;100.00;96429.97;10527471;28;1978;-72
2023/01/31 03:58:30;;;;;;;;;;;;;;;0.89;100.00;96427.13;10525195;28;1938;-72
2023/01/31 04:03:33;;;;;;;;;;;;;;;0.85;100.00;96427.72;10510767;28;2043;-73
2023/01/31 04:08:36;;;;;;;;;;;;;;;0.77;100.00;96418.13;10511691;28;2022;-71
2023/01/31 04:13:38;;;;;;;;;;;;;;;0.76;100.00;96437.63;10529378;28;2002;-71
2023/01/31 04:18:41;;;;;;;;;;;;;;;0.78;100.00;96444.38;10531680;28;1987;-71
2023/01/31 04:23:43;;;;;;;;;;;;;;;0.66;100.00;96439.81;10530793;28;1981;-72
2023/01/31 04:28:45;;;;;;;;;;;;;;;0.76;100.00;96443.75;10526111;28;1991;-70
2023/01/31 04:33:48;;;;;;;;;;;;;;;0.67;100.00;96444.09;10524179;28;1978;-71
2023/01/31 04:38:50;;;;;;;;;;;;;;;0.67;100.00;96454.69;10531278;28;2039;-72
2023/01/31 04:43:52;;;;;;;;;;;;;;;0.70;100.00;96470.16;10534766;28;1970;-71
2023/01/31 04:48:55;;;;;;;;;;;;;;;0.70;100.00;96472.81;10542148;28;1958;-70
2023/01/31 04:53:57;;;;;;;;;;;;;;;0.66;100.00;96472.41;10528436;28;1986;-70
2023/01/31 04:59:00;;;;;;;;;;;;;;;0.70;100.00;96478.94;10532914;28;2153;-71
2023/01/31 05:04:02;;;;;;;;;;;;;;;0.64;100.00;96481.56;10528225;28;1927;-72
2023/01/31 05:09:05;;;;;;;;;;;;;;;0.57;100.00;96485.94;10522705;28;2108;-72
2023/01/31 05:14:07;;;;;;;;;;;;;;;0.56;100.00;96481.69;10531181;28;1947;-71
2023/01/31 05:19:10;;;;;;;;;;;;;;;0.52;100.00;96490.00;10523758;28;1954;-72
2023/01/31 05:24:12;;;;;;;;;;;;;;;0.54;100.00;96490.63;10525593;28;2026;-72
2023/01/31 05:29:15;;;;;;;;;;;;;;;0.52;100.00;96503.25;10523943;28;1986;-72
2023/01/31 05:34:17;;;;;;;;;;;;;;;0.60;100.00;96501.47;10526978;28;2020;-72
2023/01/31 05:39:20;;;;;;;;;;;;;;;0.47;100.00;96496.88;10527814;28;2185;-72
2023/01/31 05:44:22;;;;;;;;;;;;;;;0.49;100.00;96493.03;10530196;28;1788;-72
2023/01/31 05:49:25;;;;;;;;;;;;;;;0.54;100.00;96510.97;10521867;28;1917;-71
2023/01/31 05:54:27;;;;;;;;;;;;;;;0.51;100.00;96514.84;10522416;28;1927;-70
2023/01/31 05:59:32;;;;;;;;;;;;;;;0.55;100.00;96515.25;10524794;28;1903;-71
2023/01/31 06:04:34;;;;;;;;;;;;;;;0.58;100.00;96512.25;10521536;28;1978;-71
2023/01/31 06:09:37;;;;;;;;;;;;;;;0.54;100.00;96497.75;10507131;28;2076;-71
2023/01/31 06:14:40;;;;;;;;;;;;;;;0.60;100.00;96491.69;10522538;28;2149;-74
2023/01/31 06:19:42;;;;;;;;;;;;;;;0.58;100.00;96495.56;10524702;28;1911;-72
2023/01/31 06:24:45;;;;;;;;;;;;;;;0.62;100.00;96502.88;10526461;28;1962;-74
2023/01/31 06:29:47;;;;;;;;;;;;;;;0.64;100.00;96492.13;10515796;28;2117;-72
2023/01/31 06:34:49;;;;;;;;;;;;;;;0.66;100.00;96496.22;10527630;28;1951;-75
2023/01/31 06:39:51;;;;;;;;;;;;;;;0.61;100.00;96503.91;10524064;28;1966;-75
2023/01/31 06:44:54;;;;;;;;;;;;;;;0.63;100.00;96511.63;10523885;28;2012;-76
2023/01/31 06:49:56;;;;;;;;;;;;;;;0.59;100.00;96515.69;10522505;28;2041;-72
2023/01/31 06:54:59;;;;;;;;;;;;;;;0.71;100.00;96519.44;10519310;28;1994;-72
2023/01/31 07:00:01;;;;;;;;;;;;;;;0.69;100.00;96522.28;10539879;28;2159;-73
2023/01/31 07:05:04;;;;;;;;;;;;;;;0.70;100.00;96536.31;10526931;28;1943;-72
2023/01/31 07:10:06;;;;;;;;;;;;;;;0.72;100.00;96544.91;10517230;28;2022;-73
2023/01/31 07:15:09;;;;;;;;;;;;;;;0.72;100.00;96531.66;10529603;28;2068;-72
2023/01/31 07:20:11;;;;;;;;;;;;;;;0.62;100.00;96539.13;10530256;28;1993;-73
2023/01/31 07:25:14;;;;;;;;;;;;;;;0.73;100.00;96533.28;10530961;28;1915;-73
2023/01/31 07:30:16;;;;;;;;;;;;;;;0.81;100.00;96533.97;10533546;28;1986;-71
2023/01/31 07:35:19;;;;;;;;;;;;;;;0.76;100.00;96543.47;10530053;28;2070;-72
2023/01/31 07:40:22;;;;;;;;;;;;;;;0.85;100.00;96515.88;10526695;28;2074;-71
2023/01/31 07:45:24;;;;;;;;;;;;;;;0.84;100.00;96530.13;10530926;28;2141;-72
2023/01/31 07:50:27;;;;;;;;;;;;;;;0.93;100.00;96531.59;10531895;28;2012;-73
2023/01/31 07:55:29;;;;;;;;;;;;;;;0.92;100.00;96537.91;10551274;28;1992;-73
2023/01/31 08:05:51;;;;;;;;;;;;;;;1.20;100.00;96535.19;10529072;28;1884;-73
2023/01/31 08:10:54;;;;;;;;;;;;;;;1.01;100.00;96531.44;10529747;28;2097;-72
2023/01/31 08:15:56;;;;;;;;;;;;;;;0.81;100.00;96526.00;10529376;28;1958;-73
2023/01/31 08:20:59;;;;;;;;;;;;;;;0.78;100.00;96530.91;10522840;28;2082;-75
2023/01/31 08:26:01;;;;;;;;;;;;;;;0.81;100.00;96533.97;10529725;28;2002;-76
2023/01/31 08:31:04;;;;;;;;;;;;;;;0.80;100.00;96544.75;10529523;28;1976;-72
2023/01/31 08:36:10;;;;;;;;;;;;;;;0.85;100.00;96544.16;10526688;28;1974;-71
2023/01/31 08:41:13;;;;;;;;;;;;;;;0.86;100.00;96543.16;10529025;28;1973;-73
2023/01/31 08:46:15;;;;;;;;;;;;;;;0.94;100.00;96550.94;10526368;28;2032;-73
2023/01/31 08:51:18;;;;;;;;;;;;;;;1.01;100.00;96538.56;10528606;28;2019;-73
2023/01/31 08:56:24;;;;;;;;;;;;;;;1.04;100.00;96531.06;10522379;28;2067;-72
2023/01/31 09:01:26;;;;;;;;;;;;;;;1.15;100.00;96531.53;10523425;28;2058;-72
2023/01/31 09:06:29;;;;;;;;;;;;;;;1.38;100.00;96531.22;10526491;28;1982;-72
2023/01/31 09:11:34;;;;;;;;;;;;;;;1.46;100.00;96537.16;10508440;28;1991;-72
2023/01/31 09:16:37;;;;;;;;;;;;;;;1.54;100.00;96531.69;10522515;28;2123;-73
2023/01/31 09:21:40;;;;;;;;;;;;;;;1.59;100.00;96526.63;10526383;28;2121;-72
2023/01/31 09:26:43;;;;;;;;;;;;;;;1.57;100.00;96515.38;10528138;28;1962;-73
2023/01/31 09:31:45;;;;;;;;;;;;;;;1.81;100.00;96523.81;10526080;28;1981;-73
2023/01/31 09:36:47;;;;;;;;;;;;;;;1.96;100.00;96534.25;10523496;28;2109;-72
2023/01/31 09:41:50;;;;;;;;;;;;;;;2.00;100.00;96525.72;10521091;28;2077;-73
2023/01/31 09:46:53;;;;;;;;;;;;;;;2.10;100.00;96544.72;10523422;28;1958;-71
2023/01/31 09:51:55;;;;;;;;;;;;;;;2.22;100.00;96538.78;10519411;28;1938;-74
2023/01/31 09:56:59;;;;;;;;;;;;;;;2.42;100.00;96556.38;10521249;28;2007;-71
2023/01/31 10:02:03;;;;;;;;;;;;;;;2.81;100.00;96546.78;10521905;28;1969;-71
2023/01/31 10:07:05;;;;;;;;;;;;;;;3.16;100.00;96531.38;10525403;28;1923;-73
2023/01/31 10:12:08;;;;;;;;;;;;;;;3.03;100.00;96534.06;10525266;28;2079;-71
2023/01/31 10:17:10;;;;;;;;;;;;;;;3.30;100.00;96529.50;10523002;28;2211;-73
2023/01/31 10:22:14;;;;;;;;;;;;;;;3.15;100.00;96513.00;10526412;28;2084;-73
2023/01/31 10:27:16;;;;;;;;;;;;;;;2.93;100.00;96496.53;10523774;28;1994;-72
2023/01/31 10:32:18;;;;;;;;;;;;;;;3.41;100.00;96501.47;10516801;28;1973;-71
2023/01/31 10:37:21;;;;;;;;;;;;;;;3.20;100.00;96492.75;10523326;28;2027;-72
2023/01/31 10:42:23;;;;;;;;;;;;;;;3.00;100.00;96492.00;10521081;28;2113;-74
2023/01/31 10:47:26;;;;;;;;;;;;;;;2.86;100.00;96495.69;10517916;28;2085;-70
2023/01/31 10:52:28;;;;;;;;;;;;;;;3.16;100.00;96491.53;10530284;28;2159;-71
2023/01/31 10:57:31;;;;;;;;;;;;;;;3.23;100.00;96484.34;10533963;28;1975;-72
2023/01/31 11:02:33;;;;;;;;;;;;;;;3.39;100.00;96476.94;10536310;28;1903;-72
2023/01/31 11:07:36;;;;;;;;;;;;;;;3.53;100.00;96467.88;10533215;28;2032;-72
2023/01/31 11:12:38;;;;;;;;;;;;;;;3.59;100.00;96461.72;10526632;28;1993;-71
2023/01/31 11:17:40;;;;;;;;;;;;;;;3.28;100.00;96448.38;10532778;28;1907;-72
2023/01/31 11:22:43;;;;;;;;;;;;;;;3.61;100.00;96457.00;10536672;28;1847;-71
2023/01/31 11:27:45;;;;;;;;;;;;;;;3.80;100.00;96444.63;10530097;28;2088;-72
2023/01/31 11:32:48;;;;;;;;;;;;;;;3.48;100.00;96417.19;10527685;28;2030;-74
2023/01/31 11:37:50;;;;;;;;;;;;;;;3.46;100.00;96413.94;10516277;28;1905;-73
2023/01/31 11:42:55;;;;;;;;;;;;;;;3.36;100.00;96397.63;10529367;28;1953;-74
2023/01/31 11:47:57;;;;;;;;;;;;;;;3.34;100.00;96392.53;10526605;28;2085;-73
2023/01/31 11:53:00;;;;;;;;;;;;;;;3.62;100.00;96391.34;10528850;28;1981;-72
2023/01/31 11:58:02;;;;;;;;;;;;;;;3.45;100.00;96372.47;10529618;28;2101;-76
2023/01/31 12:03:05;;;;;;;;;;;;;;;3.33;100.00;96360.88;10522425;28;1961;-74
2023/01/31 12:08:10;;;;;;;;;;;;;;;3.53;100.00;96361.56;10525056;28;1982;-72
2023/01/31 12:13:12;;;;;;;;;;;;;;;3.19;100.00;96352.97;10533463;28;1984;-73
2023/01/31 12:18:20;;;;;;;;;;;;;;;3.56;100.00;96339.84;10522445;28;1969;-71
2023/01/31 12:23:23;;;;;;;;;;;;;;;3.50;100.00;96346.06;10528811;28;1947;-72
2023/01/31 12:28:25;;;;;;;;;;;;;;;3.38;100.00;96353.09;10524919;28;2006;-72
2023/01/31 12:33:28;;;;;;;;;;;;;;;3.28;100.00;96353.53;10536375;28;1985;-70
2023/01/31 12:38:30;;;;;;;;;;;;;;;3.57;100.00;96346.81;10528486;28;2015;-72
2023/01/31 12:43:32;;;;;;;;;;;;;;;3.64;100.00;96331.63;10525628;28;2003;-71
2023/01/31 12:48:35;;;;;;;;;;;;;;;3.68;100.00;96322.16;10531936;28;1974;-71
2023/01/31 12:53:37;;;;;;;;;;;;;;;3.66;100.00;96324.25;10526802;28;2042;-72
2023/01/31 12:58:40;;;;;;;;;;;;;;;3.47;100.00;96336.66;10528768;28;2153;-73
2023/01/31 13:03:43;;;;;;;;;;;;;;;3.71;100.00;96324.41;10508364;28;2153;-71
2023/01/31 13:08:45;;;;;;;;;;;;;;;3.87;100.00;96308.94;10529063;28;2108;-72
2023/01/31 13:14:06;;;;;;;;;;;;;;;3.80;100.00;96291.19;10525657;28;2081;-73
2023/01/31 13:19:09;;;;;;;;;;;;;;;3.83;100.00;96291.81;10523891;28;2034;-71
2023/01/31 13:24:11;;;;;;;;;;;;;;;3.72;100.00;96301.28;10526099;28;2097;-72
2023/01/31 13:29:14;;;;;;;;;;;;;;;3.83;100.00;96302.44;10528044;28;1962;-71
2023/01/31 13:34:16;;;;;;;;;;;;;;;3.56;100.00;96270.72;10527168;28;1982;-72
2023/01/31 13:39:18;;;;;;;;;;;;;;;3.84;100.00;96256.19;10520173;28;1978;-73
2023/01/31 13:44:21;;;;;;;;;;;;;;;3.98;100.00;96237.22;10524924;28;2033;-72
2023/01/31 13:49:24;;;;;;;;;;;;;;;4.09;100.00;96241.00;10518400;28;1998;-72
2023/01/31 13:54:26;;;;;;;;;;;;;;;3.78;100.00;96240.06;10539499;28;1990;-72
2023/01/31 13:59:29;;;;;;;;;;;;;;;3.63;100.00;96244.94;10521482;28;1958;-72
2023/01/31 14:04:31;;;;;;;;;;;;;;;3.62;100.00;96247.78;10527904;28;1943;-72
2023/01/31 14:09:33;;;;;;;;;;;;;;;3.37;100.00;96263.72;10522031;28;1985;-72
2023/01/31 14:14:37;;;;;;;;;;;;;;;3.45;100.00;96253.66;10522120;28;2054;-72
2023/01/31 14:19:40;;;;;;;;;;;;;;;3.28;100.00;96251.75;10517739;28;1943;-72
2023/01/31 14:24:42;;;;;;;;;;;;;;;3.31;100.00;96249.50;10520036;28;2098;-71
2023/01/31 14:29:44;;;;;;;;;;;;;;;3.21;100.00;96251.81;10526904;28;1982;-72
2023/01/31 14:34:47;;;;;;;;;;;;;;;3.20;100.00;96227.09;10521987;28;2033;-72
2023/01/31 14:39:49;;;;;;;;;;;;;;;3.14;100.00;96238.56;10522392;28;2002;-73
2023/01/31 14:44:51;;;;;;;;;;;;;;;3.03;100.00;96220.66;10519160;28;1985;-72
2023/01/31 14:49:54;;;;;;;;;;;;;;;3.06;100.00;96224.75;10525256;28;2184;-71
2023/01/31 14:54:56;;;;;;;;;;;;;;;3.10;100.00;96218.75;10528524;28;2025;-72
2023/01/31 14:59:59;;;;;;;;;;;;;;;3.11;100.00;96209.75;10522008;28;1982;-73
2023/01/31 15:05:01;;;;;;;;;;;;;;;3.21;100.00;96231.34;10526961;28;1931;-72
2023/01/31 15:10:04;;;;;;;;;;;;;;;3.15;100.00;96242.03;10524233;28;1990;-71
2023/01/31 15:15:06;;;;;;;;;;;;;;;3.07;100.00;96229.84;10525431;28;1967;-71
2023/01/31 15:20:08;;;;;;;;;;;;;;;3.05;100.00;96228.41;10526858;28;1974;-72
2023/01/31 15:25:11;;;;;;;;;;;;;;;3.09;100.00;96206.53;10519862;28;1982;-73
2023/01/31 15:30:13;;;;;;;;;;;;;;;3.00;100.00;96223.75;10520446;28;1966;-72
2023/01/31 15:35:16;;;;;;;;;;;;;;;3.06;100.00;96228.22;10523634;28;2006;-75
2023/01/31 15:40:18;;;;;;;;;;;;;;;2.89;100.00;96216.47;10530845;28;2001;-76
2023/01/31 15:45:21;;;;;;;;;;;;;;;2.87;100.00;96202.59;10522025;28;1938;-73
2023/01/31 15:50:24;;;;;;;;;;;;;;;2.94;100.00;96208.69;10527333;28;2129;-73
2023/01/31 15:55:27;;;;;;;;;;;;;;;2.94;100.00;96198.88;10521553;28;2044;-73
2023/01/31 16:00:29;;;;;;;;;;;;;;;2.84;100.00;96195.06;10528154;28;2150;-73
2023/01/31 16:05:32;;;;;;;;;;;;;;;2.87;100.00;96206.06;10510503;28;2140;-72
2023/01/31 16:10:34;;;;;;;;;;;;;;;2.88;100.00;96210.34;10525537;28;2069;-73
2023/01/31 16:15:37;;;;;;;;;;;;;;;2.81;100.00;96217.53;10524271;28;2196;-73
2023/01/31 16:20:39;;;;;;;;;;;;;;;2.87;100.00;96234.47;10529456;28;1995;-78
2023/01/31 16:25:42;;;;;;;;;;;;;;;2.90;100.00;96229.53;10522805;28;2022;-79
2023/01/31 16:30:44;;;;;;;;;;;;;;;2.88;100.00;96241.41;10529999;28;1927;-72
2023/01/31 16:35:47;;;;;;;;;;;;;;;2.83;100.00;96212.00;10524515;28;2089;-73
2023/01/31 16:40:49;;;;;;;;;;;;;;;2.82;100.00;96213.88;10522190;28;2109;-72
2023/01/31 16:45:52;;;;;;;;;;;;;;;2.82;100.00;96224.47;10523071;28;2072;-73
2023/01/31 16:50:54;;;;;;;;;;;;;;;2.84;100.00;96240.19;10526739;28;1911;-72
2023/01/31 16:55:57;;;;;;;;;;;;;;;2.92;100.00;96250.56;10525723;28;1935;-74
2023/01/31 17:00:59;;;;;;;;;;;;;;;2.87;100.00;96261.03;10525824;28;2033;-73
2023/01/31 17:06:02;;;;;;;;;;;;;;;2.84;100.00;96246.31;10527500;28;2037;-73
2023/01/31 17:11:04;;;;;;;;;;;;;;;2.85;100.00;96236.50;10529970;28;1937;-73
2023/01/31 17:16:07;;;;;;;;;;;;;;;2.85;100.00;96242.63;10517609;28;2022;-72
2023/01/31 17:21:10;;;;;;;;;;;;;;;2.89;100.00;96243.03;10527522;28;1958;-71
2023/01/31 17:26:13;;;;;;;;;;;;;;;2.91;100.00;96252.41;10546732;27;1988;-75
2023/01/31 17:31:16;;;;;;;;;;;;;;;2.92;100.00;96248.72;10531993;28;1958;-73
2023/01/31 17:36:19;;;;;;;;;;;;;;;2.90;100.00;96242.81;10527920;28;1993;-74
2023/01/31 17:41:23;;;;;;;;;;;;;;;2.95;100.00;96242.16;10524498;28;1966;-74
2023/01/31 17:46:25;;;;;;;;;;;;;;;2.97;100.00;96245.41;10529369;28;1977;-74
2023/01/31 17:51:28;;;;;;;;;;;;;;;2.91;100.00;96241.78;10527383;28;2387;-75
2023/01/31 17:56:31;;;;;;;;;;;;;;;2.92;100.00;96247.91;10530279;28;2001;-77
2023/01/31 18:01:34;;;;;;;;;;;;;;;2.91;100.00;96249.75;10533428;28;2065;-74
2023/01/31 18:06:36;;;;;;;;;;;;;;;2.94;100.00;96256.47;10534588;28;1942;-74
2023/01/31 18:11:42;;;;;;;;;;;;;;;2.86;100.00;96248.75;10533820;28;1985;-76
2023/01/31 18:16:45;;;;;;;;;;;;;;;2.91;100.00;96262.19;10530125;28;2108;-76
2023/01/31 18:21:47;;;;;;;;;;;;;;;2.90;100.00;96250.78;10533358;28;2045;-76
2023/01/31 18:26:56;;;;;;;;;;;;;;;2.90;100.00;96263.25;10535538;28;2049;-76
2023/01/31 18:32:01;;;;;;;;;;;;;;;2.94;100.00;96264.44;10531829;28;2148;-74
2023/01/31 18:37:05;;;;;;;;;;;;;;;2.90;100.00;96265.88;10524510;28;2062;-74
2023/01/31 18:42:08;;;;;;;;;;;;;;;2.92;100.00;96277.09;10534071;28;2164;-76
2023/01/31 18:47:10;;;;;;;;;;;;;;;2.96;100.00;96275.66;10524676;28;2105;-72
2023/01/31 18:52:13;;;;;;;;;;;;;;;2.95;100.00;96279.34;10520521;28;2097;-72
2023/01/31 18:57:15;;;;;;;;;;;;;;;2.96;100.00;96275.66;10525914;28;2158;-72
2023/01/31 19:02:17;;;;;;;;;;;;;;;2.98;100.00;96273.59;10525336;28;2041;-73
2023/01/31 19:07:20;;;;;;;;;;;;;;;3.02;100.00;96284.63;10519738;28;1997;-71
2023/01/31 19:18:07;;;;;;;;;;;;;;;3.02;100.00;96293.41;10521677;28;2078;-72
2023/01/31 19:23:09;;;;;;;;;;;;;;;3.01;100.00;96285.66;10528471;28;2131;-74
2023/01/31 19:28:11;;;;;;;;;;;;;;;2.99;100.00;96269.94;10534605;28;2054;-75
2023/01/31 19:33:14;;;;;;;;;;;;;;;3.05;100.00;96270.91;10532506;28;2089;-76
2023/01/31 19:38:16;;;;;;;;;;;;;;;3.06;100.00;96268.06;10529793;28;2066;-73
2023/01/31 19:43:19;;;;;;;;;;;;;;;3.12;100.00;96261.06;10527128;28;2184;-72
2023/01/31 19:48:22;;;;;;;;;;;;;;;3.15;100.00;96264.09;10525424;28;2042;-74
2023/01/31 19:53:24;;;;;;;;;;;;;;;3.14;100.00;96262.47;10526060;28;2049;-72
2023/01/31 19:58:30;;;;;;;;;;;;;;;3.14;100.00;96246.53;10533670;28;1967;-73
2023/01/31 20:03:32;;;;;;;;;;;;;;;3.14;100.00;96245.72;10536113;28;1983;-72
2023/01/31 20:08:35;;;;;;;;;;;;;;;3.18;100.00;96249.56;10535620;28;1988;-72
2023/01/31 20:13:37;;;;;;;;;;;;;;;3.20;100.00;96253.66;10530673;28;2143;-72
2023/01/31 20:18:39;;;;;;;;;;;;;;;3.23;100.00;96260.38;10526846;28;2185;-73
2023/01/31 20:23:42;;;;;;;;;;;;;;;3.17;100.00;96251.41;10529155;28;1992;-73
2023/01/31 20:28:44;;;;;;;;;;;;;;;3.19;100.00;96248.56;10515373;28;2177;-73
2023/01/31 20:33:47;;;;;;;;;;;;;;;3.15;100.00;96252.66;10532038;28;2081;-72
2023/01/31 20:38:49;;;;;;;;;;;;;;;3.19;100.00;96246.72;10524264;28;2182;-71
2023/01/31 20:43:52;;;;;;;;;;;;;;;3.13;100.00;96244.91;10529088;28;2006;-71
2023/01/31 20:48:55;;;;;;;;;;;;;;;3.15;100.00;96247.34;10530895;28;2337;-72
2023/01/31 20:53:57;;;;;;;;;;;;;;;3.15;100.00;96261.44;10529072;28;2170;-73
2023/01/31 20:59:00;;;;;;;;;;;;;;;3.18;100.00;96258.38;10526168;28;2089;-72
2023/01/31 21:04:03;;;;;;;;;;;;;;;3.19;100.00;96244.06;10529592;28;2053;-71
2023/01/31 21:09:06;;;;;;;;;;;;;;;3.15;100.00;96268.59;10523548;28;2094;-73
2023/01/31 21:14:08;;;;;;;;;;;;;;;3.09;100.00;96256.97;10519759;28;1955;-73
2023/01/31 21:19:10;;;;;;;;;;;;;;;3.10;100.00;96261.25;10525587;28;2034;-72
2023/01/31 21:24:13;;;;;;;;;;;;;;;3.07;100.00;96255.59;10526047;28;2097;-71
2023/01/31 21:29:15;;;;;;;;;;;;;;;3.00;100.00;96255.63;10524155;28;2037;-71
2023/01/31 21:34:18;;;;;;;;;;;;;;;2.99;100.00;96254.00;10527010;28;2048;-73
2023/01/31 21:39:20;;;;;;;;;;;;;;;2.89;100.00;96265.09;10523406;28;2174;-73
2023/01/31 21:44:23;;;;;;;;;;;;;;;2.88;100.00;96241.41;10523560;28;2173;-73
2023/01/31 21:49:25;;;;;;;;;;;;;;;2.82;100.00;96251.03;10526507;28;2046;-72
2023/01/31 21:54:28;;;;;;;;;;;;;;;2.89;100.00;96251.00;10524817;28;2095;-72
2023/01/31 21:59:31;;;;;;;;;;;;;;;2.83;100.00;96238.56;10524007;28;1990;-73
2023/01/31 22:04:33;;;;;;;;;;;;;;;2.77;100.00;96237.56;10520209;28;2073;-72
2023/01/31 22:09:36;;;;;;;;;;;;;;;2.81;100.00;96216.75;10524593;28;2227;-73
2023/01/31 22:14:38;;;;;;;;;;;;;;;2.82;100.00;96194.47;10518064;28;2125;-74
2023/01/31 22:19:41;;;;;;;;;;;;;;;2.88;100.00;96196.25;10528291;28;2147;-73
2023/01/31 22:24:43;;;;;;;;;;;;;;;2.83;100.00;96180.97;10524504;28;2134;-73
2023/01/31 22:29:46;;;;;;;;;;;;;;;2.91;100.00;96182.53;10522188;28;2102;-72
2023/01/31 22:34:48;;;;;;;;;;;;;;;2.86;100.00;96174.41;10527854;28;2148;-74
2023/01/31 22:39:51;;;;;;;;;;;;;;;2.86;100.00;96174.41;10528550;28;2101;-72
2023/01/31 22:44:53;;;;;;;;;;;;;;;2.85;100.00;96172.78;10539730;28;1935;-72
2023/01/31 22:49:55;;;;;;;;;;;;;;;2.93;100.00;96188.47;10543580;28;2104;-72
2023/01/31 22:54:58;;;;;;;;;;;;;;;2.90;100.00;96192.34;10540908;28;2210;-72
2023/01/31 23:00:00;;;;;;;;;;;;;;;2.92;100.00;96189.47;10548493;28;2069;-74
2023/01/31 23:05:02;;;;;;;;;;;;;;;2.87;100.00;96208.72;10536345;28;2567;-73
2023/01/31 23:10:05;;;;;;;;;;;;;;;2.89;100.00;96211.16;10540070;28;2044;-73
2023/01/31 23:15:07;;;;;;;;;;;;;;;2.95;100.00;96211.13;10537962;28;2081;-73
2023/01/31 23:20:09;;;;;;;;;;;;;;;2.98;100.00;96210.66;10542283;28;1999;-72
2023/01/31 23:25:12;;;;;;;;;;;;;;;2.98;100.00;96209.84;10536949;28;2117;-74
2023/01/31 23:30:14;;;;;;;;;;;;;;;3.01;100.00;96213.94;10538215;28;2109;-76
2023/01/31 23:35:17;;;;;;;;;;;;;;;3.05;100.00;96200.00;10533659;28;2066;-73
2023/01/31 23:40:19;;;;;;;;;;;;;;;3.09;100.00;96190.59;10534053;28;2037;-73
2023/01/31 23:45:22;;;;;;;;;;;;;;;3.07;100.00;96176.72;10535966;28;2026;-75
2023/01/31 23:50:25;;;;;;;;;;;;;;;3.11;100.00;96185.03;10539981;28;2198;-72
2023/01/31 23:55:27;;;;;;;;;;;;;;;3.10;100.00;96175.47;10540260;28;1979;-71
